Mount Pleasant, Mississippi
Current Conditions -  °F | °C
As of 11:50 AM on Monday 24 Nov 2014 (Local Time) from KOLV Reporting Station
Few Clouds Few Clouds  
Wind Chill: 54°   Ceiling: Unl
Heat Index: 54°   Visibility: 10mi
Dew Point: 36°   Wind: 9mph
Humidity: 51%   Direction: 270°W
Pressure: 29.88"   Gusts: 21mph
Location:  34.96°N, 89.52°W
Report Text: KOLV 241750Z 27008G18KT 10SM FEW030 FEW250 12/02 A2988
Loading
Personal Weather Stations






























Interactive Weather Map New forecast layout! Learn more

10-Day Weather Forecast

Advertisements
Track Severe Weather on mobile